Time;durP1;ratioP1;P1;durP2;ratioP2;P2;SDS_P1;SDS_P2;PMS_P1;PMS_P2;Temp;Humidity;BMP_temperature;BMP_pressure;BME280_temperature;BME280_humidity;BME280_pressure;Samples;Min_cycle;Max_cycle;Signal;HPM_P1;HPM_P2
2023/04/20 00:01:19;;;;;;;11.63;2.50;;;;;;;-144.73;49.40;54370.75;5030177;28;20040;-70
2023/04/20 00:03:44;;;;;;;10.18;2.25;;;;;;;-144.73;49.11;54313.28;5032861;28;20035;-69
2023/04/20 00:06:10;;;;;;;11.85;2.15;;;;;;;-144.73;49.56;54333.81;5040520;28;20026;-70
2023/04/20 00:08:35;;;;;;;6.18;2.58;;;;;;;-144.73;49.49;54342.03;5031292;28;20087;-69
2023/04/20 00:11:00;;;;;;;10.25;2.03;;;;;;;-144.73;49.82;54323.53;5036352;28;20133;-69
2023/04/20 00:13:25;;;;;;;14.85;2.60;;;;;;;-144.73;49.85;54317.38;5034528;28;20488;-70
2023/04/20 00:15:51;;;;;;;7.63;2.20;;;;;;;-144.73;50.78;54346.13;5030254;28;20030;-70
2023/04/20 00:18:16;;;;;;;6.15;2.10;;;;;;;-144.73;50.92;54300.97;5028757;28;20021;-70
2023/04/20 00:20:42;;;;;;;10.70;2.42;;;;;;;-144.73;51.25;54325.59;5034085;28;20036;-70
2023/04/20 00:23:07;;;;;;;9.38;2.10;;;;;;;-144.73;53.54;54309.19;5032600;28;20056;-70
2023/04/20 00:25:32;;;;;;;6.32;1.77;;;;;;;-144.73;56.23;54337.91;5029259;28;20040;-70
2023/04/20 00:27:59;;;;;;;7.85;2.30;;;;;;;-144.73;62.22;54350.22;5034009;28;20041;-69
2023/04/20 00:30:24;;;;;;;8.55;2.20;;;;;;;-144.73;66.76;54292.75;5028034;28;20061;-69
2023/04/20 00:32:49;;;;;;;11.35;2.30;;;;;;;-144.73;67.27;54354.34;5030390;28;20053;-70
2023/04/20 00:35:15;;;;;;;7.18;2.60;;;;;;;-144.73;66.33;54292.75;5033707;28;20037;-70
2023/04/20 00:37:40;;;;;;;6.68;1.98;;;;;;;-144.73;66.67;54276.34;5032619;28;20021;-69
2023/04/20 00:40:06;;;;;;;12.38;2.67;;;;;;;-144.73;67.05;54337.91;5032228;28;20047;-70
2023/04/20 00:42:32;;;;;;;11.63;2.38;;;;;;;-144.73;69.34;54315.34;5038234;28;20025;-70
2023/04/20 00:44:57;;;;;;;8.18;2.40;;;;;;;-144.73;68.09;54303.03;5038481;28;20022;-69
2023/04/20 00:47:22;;;;;;;10.80;2.58;;;;;;;-144.73;70.54;54290.72;5032130;28;20041;-70
2023/04/20 00:49:48;;;;;;;9.65;2.80;;;;;;;-144.73;70.11;54288.66;5031201;28;20079;-70
2023/04/20 00:52:13;;;;;;;15.23;2.67;;;;;;;-144.73;71.37;54309.19;5031911;28;20017;-70
2023/04/20 00:54:39;;;;;;;17.85;3.22;;;;;;;-144.73;74.70;54317.38;5031711;28;20037;-70
2023/04/20 00:57:05;;;;;;;11.30;3.15;;;;;;;-144.73;79.47;54354.34;5037690;28;20060;-70
2023/04/20 00:59:30;;;;;;;15.00;3.13;;;;;;;-144.73;79.48;54296.88;5032651;28;20057;-70
2023/04/20 01:01:56;;;;;;;14.32;3.47;;;;;;;-144.73;79.78;54325.59;5037333;28;20120;-70
2023/04/20 01:04:22;;;;;;;9.85;3.17;;;;;;;-144.73;78.41;54325.59;5031717;28;20025;-71
2023/04/20 01:06:47;;;;;;;14.05;3.08;;;;;;;-144.73;76.01;54350.22;5031199;28;20492;-70
2023/04/20 01:09:13;;;;;;;8.68;2.40;;;;;;;-144.73;76.87;54300.97;5031481;28;20028;-70
2023/04/20 01:11:38;;;;;;;7.75;3.15;;;;;;;-144.73;75.39;54313.28;5037541;28;20158;-70
2023/04/20 01:14:04;;;;;;;12.45;3.08;;;;;;;-144.73;74.69;54362.53;5031515;28;20037;-70
2023/04/20 01:16:30;;;;;;;9.43;2.67;;;;;;;-144.73;74.39;54325.59;5030690;28;20044;-70
2023/04/20 01:18:56;;;;;;;9.63;2.80;;;;;;;-144.73;72.01;54370.75;5038759;28;20487;-69
2023/04/20 01:21:22;;;;;;;8.88;2.83;;;;;;;-144.73;72.80;54317.38;5042906;28;20036;-70
2023/04/20 01:23:48;;;;;;;13.68;3.58;;;;;;;-144.73;71.61;54317.38;5038655;28;20495;-70
2023/04/20 01:26:16;;;;;;;13.10;3.20;;;;;;;-144.73;71.67;54294.81;5038147;28;20033;-69
2023/04/20 01:28:42;;;;;;;7.55;2.67;;;;;;;-144.73;73.63;54300.97;5038358;28;20115;-70
2023/04/20 01:31:09;;;;;;;13.80;3.28;;;;;;;-144.73;73.61;54346.13;5030912;28;20037;-69
2023/04/20 01:33:35;;;;;;;29.58;4.28;;;;;;;-144.73;75.78;54333.81;5031389;28;20030;-69
2023/04/20 01:36:02;;;;;;;11.95;3.00;;;;;;;-144.73;77.97;54321.50;5037948;28;20124;-70
2023/04/20 01:38:27;;;;;;;14.82;3.65;;;;;;;-144.73;80.49;54317.38;5031125;28;20679;-69
2023/04/20 01:40:54;;;;;;;8.38;2.95;;;;;;;-144.73;84.75;54329.72;5029985;28;20034;-69
2023/04/20 01:43:22;;;;;;;13.57;3.75;;;;;;;-144.73;84.74;54309.19;5032045;28;20021;-70
2023/04/20 01:45:47;;;;;;;13.80;3.25;;;;;;;-144.73;84.90;54321.50;5030106;28;20026;-69
2023/04/20 01:48:12;;;;;;;12.60;3.28;;;;;;;-144.73;85.81;54342.03;5030446;28;20026;-69
2023/04/20 01:50:38;;;;;;;12.18;2.97;;;;;;;-144.73;85.75;54342.03;5030091;28;20099;-69
2023/04/20 01:53:03;;;;;;;15.00;3.67;;;;;;;-144.73;85.51;54327.66;5031766;28;20029;-69
2023/04/20 01:55:28;;;;;;;14.82;3.10;;;;;;;-144.73;86.79;54325.59;5029848;28;20188;-69
2023/04/20 01:57:54;;;;;;;11.60;3.90;;;;;;;-144.73;86.55;54331.75;5030326;28;20052;-70
2023/04/20 02:00:19;;;;;;;9.57;3.30;;;;;;;-144.73;86.55;54331.75;5029718;28;20110;-70
2023/04/20 02:02:44;;;;;;;22.23;4.25;;;;;;;-144.73;86.92;54337.91;5031469;28;20029;-70
2023/04/20 02:05:10;;;;;;;16.33;3.42;;;;;;;-144.73;86.96;54342.03;5031554;28;20037;-70
2023/04/20 02:07:35;;;;;;;15.68;3.28;;;;;;;-144.73;86.66;54323.53;5030081;28;20115;-70
2023/04/20 02:10:02;;;;;;;11.98;3.17;;;;;;;-144.73;86.54;54333.81;5029893;28;20025;-70
2023/04/20 02:12:28;;;;;;;15.23;3.67;;;;;;;-144.73;86.76;54329.72;5032008;28;20033;-69
2023/04/20 02:14:53;;;;;;;13.38;4.13;;;;;;;-144.73;85.38;54378.97;5031424;28;20030;-70
2023/04/20 02:17:18;;;;;;;12.70;3.08;;;;;;;-144.73;84.75;54296.88;5030333;28;20034;-69
2023/04/20 02:19:44;;;;;;;23.73;3.63;;;;;;;-144.73;85.67;54329.72;5029677;28;20021;-69
2023/04/20 02:22:09;;;;;;;15.38;3.78;;;;;;;-144.73;85.15;54309.19;5030299;28;20100;-69
2023/04/20 02:24:35;;;;;;;20.10;3.50;;;;;;;-144.73;85.12;54366.66;5033633;28;20057;-69
2023/04/20 02:27:00;;;;;;;9.15;3.22;;;;;;;-144.73;85.16;54346.13;5029211;28;20088;-69
2023/04/20 02:29:25;;;;;;;12.00;3.47;;;;;;;-144.73;85.61;54296.88;5029942;28;20030;-69
2023/04/20 02:31:51;;;;;;;12.43;3.47;;;;;;;-144.73;85.20;54303.03;5028837;28;20040;-69
2023/04/20 02:34:16;;;;;;;17.08;4.32;;;;;;;-144.73;84.86;54333.81;5029948;28;20053;-69
2023/04/20 02:36:41;;;;;;;13.55;4.05;;;;;;;-144.73;84.78;54339.97;5029300;28;20061;-69
2023/04/20 02:39:07;;;;;;;14.77;4.18;;;;;;;-144.73;84.18;54315.34;5029675;28;20109;-69
2023/04/20 02:41:32;;;;;;;18.13;3.63;;;;;;;-144.73;83.69;54331.75;5028877;28;20449;-70
2023/04/20 02:43:58;;;;;;;12.80;4.15;;;;;;;-144.73;84.41;54321.50;5030763;28;20028;-70
2023/04/20 02:46:23;;;;;;;23.70;4.10;;;;;;;-144.73;85.28;54352.28;5029310;28;20033;-70
2023/04/20 02:48:48;;;;;;;18.05;4.32;;;;;;;-144.73;85.39;54319.44;5028746;28;20021;-70
2023/04/20 02:51:13;;;;;;;11.98;3.58;;;;;;;-144.73;84.71;54284.56;5029017;28;20112;-69
2023/04/20 02:53:39;;;;;;;10.70;3.90;;;;;;;-144.73;85.88;54321.50;5029424;28;20041;-69
2023/04/20 02:56:05;;;;;;;17.52;3.75;;;;;;;-144.73;85.55;54317.38;5029285;28;20052;-69
2023/04/20 02:58:30;;;;;;;16.35;4.15;;;;;;;-144.73;85.60;54337.91;5030130;28;20026;-70
2023/04/20 03:01:00;;;;;;;16.35;3.80;;;;;;;-144.73;86.66;54342.03;5027923;28;20029;-69
2023/04/20 03:03:26;;;;;;;17.55;3.80;;;;;;;-144.73;85.95;54278.41;5029533;28;20025;-70
2023/04/20 03:05:52;;;;;;;14.75;3.38;;;;;;;-144.73;87.10;54321.50;5029019;28;20037;-70
2023/04/20 03:08:17;;;;;;;19.45;4.38;;;;;;;-144.73;87.71;54346.13;5029017;28;20021;-69
2023/04/20 03:10:42;;;;;;;19.15;4.45;;;;;;;-144.73;89.42;54329.72;5027678;28;20056;-70
2023/04/20 03:13:08;;;;;;;21.55;5.15;;;;;;;-144.73;90.22;54335.88;5029094;28;20075;-71
2023/04/20 03:15:33;;;;;;;19.20;4.40;;;;;;;-144.73;91.94;54313.28;5029469;28;20133;-70
2023/04/20 03:17:58;;;;;;;19.13;4.50;;;;;;;-144.73;93.53;54348.19;5029995;28;20029;-71
2023/04/20 03:20:24;;;;;;;16.80;4.22;;;;;;;-144.73;94.20;54333.81;5028037;28;20037;-71
2023/04/20 03:22:49;;;;;;;17.70;4.03;;;;;;;-144.73;96.32;54300.97;5030121;28;20037;-70
2023/04/20 03:25:15;;;;;;;11.30;3.92;;;;;;;-144.73;96.97;54333.81;5028165;28;20029;-70
2023/04/20 03:27:40;;;;;;;21.90;4.50;;;;;;;-144.73;97.01;54333.81;5028744;28;20021;-70
2023/04/20 03:30:07;;;;;;;33.50;5.63;;;;;;;-144.73;96.63;54305.06;5028042;28;20099;-69
2023/04/20 03:32:32;;;;;;;19.15;4.47;;;;;;;-144.73;96.00;54329.72;5028851;28;20337;-70
2023/04/20 03:34:57;;;;;;;15.18;4.28;;;;;;;-144.73;99.02;54317.38;5028247;28;20017;-70
2023/04/20 03:37:23;;;;;;;22.20;4.78;;;;;;;-144.73;100.00;54354.34;5029891;28;20603;-70
2023/04/20 03:39:48;;;;;;;26.30;5.00;;;;;;;-144.73;100.00;54311.22;5027907;28;20040;-71
2023/04/20 03:42:13;;;;;;;17.75;6.03;;;;;;;-144.73;100.00;54313.28;5028633;28;20021;-73
2023/04/20 03:44:39;;;;;;;20.52;6.03;;;;;;;-144.73;100.00;54333.81;5028635;28;20028;-73
2023/04/20 03:47:04;;;;;;;26.15;5.45;;;;;;;-144.73;100.00;54344.06;5029348;28;20394;-74
2023/04/20 03:49:30;;;;;;;29.95;5.72;;;;;;;-144.73;100.00;54333.81;5028562;28;20067;-74
2023/04/20 03:51:55;;;;;;;25.83;5.57;;;;;;;-144.73;100.00;54342.03;5028212;28;20108;-74
2023/04/20 03:54:20;;;;;;;21.55;5.72;;;;;;;-144.73;100.00;54298.91;5029395;28;20132;-74
2023/04/20 03:56:48;;;;;;;24.67;6.45;;;;;;;-144.73;100.00;54321.50;5027802;28;20045;-73
2023/04/20 03:59:14;;;;;;;22.33;6.00;;;;;;;-144.73;100.00;54329.72;5029793;28;20060;-72
2023/04/20 04:01:39;;;;;;;25.20;7.22;;;;;;;-144.73;100.00;54354.34;5029830;28;20034;-72
2023/04/20 04:04:04;;;;;;;22.80;6.18;;;;;;;-144.73;100.00;54354.34;5030359;28;20028;-72
2023/04/20 04:06:31;;;;;;;25.55;6.80;;;;;;;-144.73;100.00;54327.66;5029130;28;20037;-73
2023/04/20 04:08:56;;;;;;;22.65;7.40;;;;;;;-144.73;100.00;54362.53;5030353;28;20095;-73
2023/04/20 04:11:22;;;;;;;24.85;6.38;;;;;;;-144.73;100.00;54346.13;5030988;28;20038;-73
2023/04/20 04:13:47;;;;;;;31.70;7.43;;;;;;;-144.73;100.00;54300.97;5033848;28;20055;-72
2023/04/20 04:16:12;;;;;;;22.65;6.53;;;;;;;-144.73;100.00;54323.53;5032731;28;20042;-73
2023/04/20 04:18:42;;;;;;;21.33;6.60;;;;;;;-144.73;100.00;54354.34;5033389;28;20087;-72
2023/04/20 04:21:09;;;;;;;14.98;5.55;;;;;;;-144.73;100.00;54362.53;5032797;28;20033;-72
2023/04/20 04:23:36;;;;;;;27.33;7.75;;;;;;;-144.73;100.00;54337.91;5033524;28;20032;-73
2023/04/20 04:26:01;;;;;;;19.38;6.50;;;;;;;-144.73;100.00;54342.03;5032724;28;20032;-73
2023/04/20 04:28:27;;;;;;;32.10;8.05;;;;;;;-144.73;100.00;54337.91;5033101;28;20033;-72
2023/04/20 04:30:53;;;;;;;34.90;7.47;;;;;;;-144.73;100.00;54362.53;5033917;28;20100;-73
2023/04/20 04:33:19;;;;;;;27.95;8.10;;;;;;;-144.73;100.00;54362.53;5033027;28;20017;-73
2023/04/20 04:35:44;;;;;;;31.17;7.03;;;;;;;-144.73;100.00;54327.66;5032275;28;20123;-74
2023/04/20 04:38:12;;;;;;;20.95;6.85;;;;;;;-144.73;100.00;54342.03;5032029;28;20017;-74
2023/04/20 04:40:38;;;;;;;19.83;6.35;;;;;;;-144.73;100.00;54327.66;5031202;28;20030;-73
2023/04/20 04:43:04;;;;;;;28.92;7.65;;;;;;;-144.73;100.00;54352.28;5033305;28;20017;-74
2023/04/20 04:45:29;;;;;;;20.60;8.43;;;;;;;-144.73;100.00;54325.59;5032017;28;20113;-74
2023/04/20 04:47:55;;;;;;;32.17;7.38;;;;;;;-144.73;100.00;54346.13;5033460;28;20029;-74
2023/04/20 04:50:21;;;;;;;29.50;8.90;;;;;;;-144.73;100.00;54354.34;5032201;28;20037;-74
2023/04/20 04:52:46;;;;;;;22.83;7.60;;;;;;;-144.73;100.00;54352.28;5033113;28;20025;-73
2023/04/20 04:55:12;;;;;;;27.17;7.85;;;;;;;-144.73;100.00;54288.66;5031712;28;20038;-74
2023/04/20 04:57:37;;;;;;;26.33;8.25;;;;;;;-144.73;100.00;54313.28;5031789;28;20041;-73
2023/04/20 05:00:12;;;;;;;27.98;8.60;;;;;;;-144.73;100.00;54370.75;5031397;28;20026;-73
2023/04/20 05:02:42;;;;;;;31.25;9.15;;;;;;;-144.73;100.00;54325.59;5031949;28;20052;-74
2023/04/20 05:05:08;;;;;;;26.38;8.90;;;;;;;-144.73;100.00;54362.53;5033442;28;20034;-74
2023/04/20 05:07:34;;;;;;;35.70;8.02;;;;;;;-144.73;100.00;54350.22;5033549;28;20040;-74
2023/04/20 05:09:59;;;;;;;25.88;8.00;;;;;;;-144.73;100.00;54305.06;5031738;28;20030;-74
2023/04/20 05:12:24;;;;;;;27.88;9.15;;;;;;;-144.73;100.00;54358.44;5032353;28;20036;-74
2023/04/20 05:14:51;;;;;;;30.45;8.48;;;;;;;-144.73;100.00;54346.13;5038869;28;20112;-74
2023/04/20 05:17:17;;;;;;;24.35;8.93;;;;;;;-144.73;100.00;54346.13;5036835;28;20036;-74
2023/04/20 05:19:42;;;;;;;26.50;9.23;;;;;;;-144.73;100.00;54346.13;5033126;28;20030;-75
2023/04/20 05:22:08;;;;;;;27.73;9.35;;;;;;;-144.73;100.00;54337.91;5030790;28;20038;-74
2023/04/20 05:24:33;;;;;;;46.17;11.65;;;;;;;-144.73;100.00;54362.53;5031785;28;20029;-74
2023/04/20 05:26:59;;;;;;;31.48;9.70;;;;;;;-144.73;100.00;54337.91;5031980;28;20068;-75
2023/04/20 05:29:24;;;;;;;33.28;8.82;;;;;;;-144.73;100.00;54342.03;5031238;28;20029;-74
2023/04/20 05:31:50;;;;;;;32.83;10.85;;;;;;;-144.73;100.00;54354.34;5031028;28;20033;-74
2023/04/20 05:34:15;;;;;;;30.02;9.43;;;;;;;-144.73;100.00;54350.22;5032535;28;20472;-74
2023/04/20 05:36:41;;;;;;;31.63;9.30;;;;;;;-144.73;100.00;54329.72;5030730;28;20041;-75
2023/04/20 05:39:06;;;;;;;44.83;10.23;;;;;;;-144.73;100.00;54329.72;5025512;28;20099;-74
2023/04/20 05:41:32;;;;;;;33.05;10.20;;;;;;;-144.73;100.00;54352.28;5030180;28;20093;-75
2023/04/20 05:43:57;;;;;;;29.77;9.50;;;;;;;-144.73;100.00;54342.03;5032476;28;20165;-74
2023/04/20 05:46:22;;;;;;;38.53;10.02;;;;;;;-144.73;100.00;54362.53;5030708;28;20080;-74
2023/04/20 05:48:48;;;;;;;32.13;10.73;;;;;;;-144.73;100.00;54362.53;5030525;28;20033;-75
2023/04/20 05:51:16;;;;;;;28.58;9.77;;;;;;;-144.73;100.00;54354.34;5032637;28;20033;-76
2023/04/20 05:53:41;;;;;;;31.17;10.40;;;;;;;-144.73;100.00;54348.19;5033576;28;20064;-75
2023/04/20 05:56:07;;;;;;;33.28;9.77;;;;;;;-144.73;100.00;54333.81;5031680;28;20481;-75
2023/04/20 05:58:34;;;;;;;38.50;10.35;;;;;;;-144.73;100.00;54370.75;5033786;28;20044;-75
2023/04/20 06:01:01;;;;;;;37.42;11.55;;;;;;;-144.73;100.00;54329.72;5053528;28;20538;-75
2023/04/20 06:03:26;;;;;;;43.10;10.88;;;;;;;-144.73;100.00;54329.72;5053671;28;20112;-75
2023/04/20 06:05:52;;;;;;;35.38;11.15;;;;;;;-144.73;100.00;54346.13;5034319;28;20156;-71
2023/04/20 06:08:18;;;;;;;43.20;11.32;;;;;;;-144.73;100.00;54325.59;5029432;28;20013;-72
2023/04/20 06:10:43;;;;;;;38.70;10.93;;;;;;;-144.73;100.00;54329.72;5041921;28;20091;-72
2023/04/20 06:13:09;;;;;;;33.72;9.98;;;;;;;-144.73;100.00;54399.50;5041625;28;20100;-72
2023/04/20 06:15:34;;;;;;;41.83;10.07;;;;;;;-144.73;100.00;54391.28;5039226;28;20055;-71
2023/04/20 06:18:00;;;;;;;30.83;9.07;;;;;;;-144.73;100.00;54370.75;5020046;28;20033;-71
2023/04/20 06:20:25;;;;;;;37.10;9.93;;;;;;;-144.73;100.00;54370.75;5024445;28;20573;-71
2023/04/20 06:22:51;;;;;;;31.52;10.00;;;;;;;-144.73;100.00;54321.50;5027143;28;20025;-72
2023/04/20 06:25:16;;;;;;;35.85;10.63;;;;;;;-144.73;100.00;54329.72;5026855;28;20103;-73
2023/04/20 06:27:41;;;;;;;34.80;10.65;;;;;;;-144.73;100.00;54337.91;5026466;28;20049;-72
2023/04/20 06:30:07;;;;;;;31.77;10.35;;;;;;;-144.73;100.00;54346.13;5026809;28;20037;-72
2023/04/20 06:32:32;;;;;;;33.10;10.68;;;;;;;-144.73;100.00;54329.72;5023702;28;20025;-71
2023/04/20 06:34:58;;;;;;;38.17;11.27;;;;;;;-144.73;100.00;54337.91;5020995;28;20025;-72
2023/04/20 06:37:23;;;;;;;40.03;11.35;;;;;;;-144.73;100.00;54337.91;5027649;28;20029;-72
2023/04/20 06:39:53;;;;;;;30.88;9.48;;;;;;;-144.73;100.00;54342.03;5023054;28;20040;-72
2023/04/20 06:42:19;;;;;;;31.92;11.30;;;;;;;-144.73;100.00;54354.34;5024365;28;20059;-69
2023/04/20 06:44:44;;;;;;;31.42;10.85;;;;;;;-144.73;100.00;54366.66;5024828;28;20061;-72
2023/04/20 06:47:10;;;;;;;31.27;10.18;;;;;;;-144.73;100.00;54344.06;5023510;28;20117;-71
2023/04/20 06:49:36;;;;;;;31.33;9.82;;;;;;;-144.73;100.00;54337.91;5028075;28;20033;-71
2023/04/20 06:52:01;;;;;;;29.17;9.80;;;;;;;-144.73;100.00;54362.53;5021388;28;20056;-71
2023/04/20 06:54:27;;;;;;;41.35;10.60;;;;;;;-144.73;100.00;54346.13;5026254;28;20033;-71
2023/04/20 06:56:52;;;;;;;21.92;9.02;;;;;;;-144.73;100.00;54346.13;5022179;28;20118;-70
2023/04/20 06:59:18;;;;;;;30.90;10.90;;;;;;;-144.73;100.00;54319.44;5030199;28;20183;-70
2023/04/20 07:01:43;;;;;;;32.83;12.65;;;;;;;-144.73;100.00;54329.72;5046105;28;20124;-71
2023/04/20 07:04:08;;;;;;;47.35;12.70;;;;;;;-144.73;100.00;54321.50;5023580;28;20079;-71
2023/04/20 07:06:34;;;;;;;42.92;11.55;;;;;;;-144.73;100.00;54350.22;5034419;28;20040;-71
2023/04/20 07:08:59;;;;;;;35.95;10.73;;;;;;;-144.73;100.00;54317.38;5029551;28;20112;-71
2023/04/20 07:11:25;;;;;;;36.75;14.73;;;;;;;-144.73;100.00;54370.75;5042944;28;20056;-70
2023/04/20 07:13:50;;;;;;;28.55;9.48;;;;;;;-144.73;100.00;54366.66;5027124;28;20119;-71
2023/04/20 07:16:15;;;;;;;46.83;11.98;;;;;;;-144.73;100.00;54329.72;5025976;28;20484;-70
2023/04/20 07:18:41;;;;;;;40.45;11.57;;;;;;;-144.73;100.00;54383.06;5026778;28;20025;-71
2023/04/20 07:21:06;;;;;;;37.00;11.60;;;;;;;-144.73;100.00;54333.81;5021811;28;20032;-71
2023/04/20 07:23:32;;;;;;;39.63;11.75;;;;;;;-144.73;100.00;54342.03;5043983;28;20062;-70
2023/04/20 07:25:57;;;;;;;31.95;10.90;;;;;;;-144.73;100.00;54381.00;5026475;28;20041;-71
2023/04/20 07:28:22;;;;;;;34.53;11.55;;;;;;;-144.73;100.00;54366.66;5025342;28;20029;-71
2023/04/20 07:30:48;;;;;;;33.95;10.80;;;;;;;-144.73;100.00;54362.53;5033511;28;20079;-70
2023/04/20 07:33:13;;;;;;;31.90;11.20;;;;;;;-144.73;100.00;54337.91;5034306;28;20048;-70
2023/04/20 07:35:38;;;;;;;27.58;11.30;;;;;;;-144.73;100.00;54366.66;5053167;28;20103;-71
2023/04/20 07:38:04;;;;;;;47.17;13.77;;;;;;;-144.73;100.00;54395.38;5032723;28;20100;-71
2023/04/20 07:40:29;;;;;;;48.10;12.75;;;;;;;-144.73;100.00;54366.66;5042790;28;20044;-70
2023/04/20 07:42:55;;;;;;;34.05;11.45;;;;;;;-144.73;100.00;54342.03;5025908;28;20060;-71
2023/04/20 07:45:21;;;;;;;36.10;11.82;;;;;;;-144.73;100.00;54383.06;5024961;28;20048;-71
2023/04/20 07:47:50;;;;;;;33.92;12.50;;;;;;;-144.73;100.00;54370.75;5025008;28;20503;-69
2023/04/20 07:50:16;;;;;;;37.70;13.75;;;;;;;-144.73;100.00;54376.91;5026364;28;20033;-72
2023/04/20 07:52:43;;;;;;;36.22;11.77;;;;;;;-144.73;100.00;54420.00;5043645;28;20031;-72
2023/04/20 07:55:10;;;;;;;34.42;12.55;;;;;;;-144.73;100.00;54411.81;5021197;28;20044;-71
2023/04/20 07:57:37;;;;;;;35.00;10.82;;;;;;;-144.73;100.00;54346.13;5027327;28;20052;-72
2023/04/20 08:00:06;;;;;;;33.05;12.52;;;;;;;-144.73;100.00;54350.22;5024663;28;20039;-71
2023/04/20 08:02:32;;;;;;;32.75;12.32;;;;;;;-144.73;100.00;54346.13;5025144;28;20121;-70
2023/04/20 08:04:57;;;;;;;40.40;12.85;;;;;;;-144.73;100.00;54325.59;5048914;28;20048;-70
2023/04/20 08:07:24;;;;;;;33.47;12.18;;;;;;;-144.73;100.00;54329.72;5031629;28;20376;-72
2023/04/20 08:09:49;;;;;;;33.28;12.55;;;;;;;-144.73;100.00;54350.22;5028091;28;20221;-72
2023/04/20 08:12:14;;;;;;;36.58;11.20;;;;;;;-144.73;100.00;54350.22;5025740;28;20071;-72
2023/04/20 08:14:40;;;;;;;41.78;12.07;;;;;;;-144.73;100.00;54381.00;5026246;28;20025;-70
2023/04/20 08:17:06;;;;;;;41.63;13.02;;;;;;;-144.73;100.00;54358.44;5027529;28;20045;-71
2023/04/20 08:19:32;;;;;;;43.65;12.60;;;;;;;-144.73;100.00;54292.75;5025136;28;20104;-70
2023/04/20 08:21:57;;;;;;;40.75;12.68;;;;;;;-144.73;100.00;54354.34;5043181;28;20124;-70
2023/04/20 08:24:23;;;;;;;48.50;12.98;;;;;;;-144.73;100.00;54346.13;5042556;28;20028;-71
2023/04/20 08:26:48;;;;;;;49.13;14.35;;;;;;;-144.73;100.00;54378.97;5042135;28;20030;-70
2023/04/20 08:29:13;;;;;;;46.13;13.60;;;;;;;-144.73;100.00;54352.28;5042424;28;20025;-71
2023/04/20 08:31:39;;;;;;;37.03;13.63;;;;;;;-144.73;100.00;54352.28;5024800;28;20040;-71
2023/04/20 08:34:04;;;;;;;49.75;16.08;;;;;;;-144.73;100.00;54350.22;5025927;28;20029;-70
2023/04/20 08:36:30;;;;;;;51.85;15.52;;;;;;;-144.73;100.00;54350.22;5024321;28;20044;-71
2023/04/20 08:39:08;;;;;;;48.22;15.10;;;;;;;-144.73;100.00;54346.13;5026328;28;20040;-70
2023/04/20 08:41:34;;;;;;;41.78;15.13;;;;;;;-144.73;100.00;54358.44;5022300;28;20045;-70
2023/04/20 08:44:00;;;;;;;42.97;15.05;;;;;;;-144.73;100.00;54358.44;5026551;28;20063;-70
2023/04/20 08:46:25;;;;;;;29.10;12.80;;;;;;;-144.73;100.00;54333.81;5023834;28;20045;-71
2023/04/20 08:48:52;;;;;;;36.58;15.10;;;;;;;-144.73;100.00;54411.81;5027713;28;20029;-72
2023/04/20 08:51:17;;;;;;;49.25;15.32;;;;;;;-144.73;100.00;54381.00;5030641;28;20041;-72
2023/04/20 08:53:43;;;;;;;37.67;14.45;;;;;;;-144.73;100.00;54362.53;5027419;28;20063;-72
2023/04/20 08:56:08;;;;;;;38.92;13.57;;;;;;;-144.73;100.00;54374.84;5026824;28;20326;-71
2023/04/20 08:58:34;;;;;;;42.05;13.55;;;;;;;-144.73;100.00;54337.91;5028442;28;20033;-72
2023/04/20 09:01:00;;;;;;;41.15;14.18;;;;;;;-144.73;100.00;54337.91;5031712;28;20052;-72
2023/04/20 09:03:39;;;;;;;40.15;13.38;;;;;;;-144.73;100.00;54366.66;5031269;28;20052;-71
2023/04/20 09:06:12;;;;;;;30.05;11.55;;;;;;;-144.73;100.00;54370.75;5028608;28;20082;-71
2023/04/20 09:08:39;;;;;;;33.97;14.38;;;;;;;-144.73;100.00;54358.44;5049456;28;20029;-72
2023/04/20 09:11:05;;;;;;;28.73;12.55;;;;;;;-144.73;100.00;54370.75;5050555;28;20035;-71
2023/04/20 09:13:31;;;;;;;37.55;12.55;;;;;;;-144.73;100.00;54362.53;5044254;28;20116;-72
2023/04/20 09:15:56;;;;;;;33.35;12.98;;;;;;;-144.73;100.00;54399.50;5047834;28;20133;-73
2023/04/20 09:18:23;;;;;;;30.45;14.27;;;;;;;-144.73;100.00;54325.59;5035546;28;20147;-70
2023/04/20 09:20:49;;;;;;;42.28;15.40;;;;;;;-144.73;100.00;54352.28;5027960;28;20048;-69
2023/04/20 09:23:20;;;;;;;30.50;11.80;;;;;;;-144.73;100.00;54346.13;5047252;28;20036;-70
2023/04/20 09:25:51;;;;;;;37.05;12.80;;;;;;;-144.73;100.00;54370.75;5045290;28;20045;-70
2023/04/20 09:28:17;;;;;;;39.58;14.63;;;;;;;-144.73;100.00;54337.91;5045520;28;20079;-70
2023/04/20 09:30:44;;;;;;;34.28;12.48;;;;;;;-144.73;100.00;54354.34;5045449;28;20029;-69
2023/04/20 09:33:11;;;;;;;26.85;12.05;;;;;;;-144.73;100.00;54383.06;5028835;28;20021;-70
2023/04/20 09:35:39;;;;;;;38.40;13.57;;;;;;;-144.73;100.00;54317.38;5042428;28;20049;-69
2023/04/20 09:38:06;;;;;;;24.23;13.35;;;;;;;-144.73;100.00;54366.66;5028620;28;20111;-69
2023/04/20 09:40:32;;;;;;;27.27;12.50;;;;;;;-144.73;100.00;54342.03;5027566;28;20061;-69
2023/04/20 09:43:02;;;;;;;34.90;13.18;;;;;;;-144.73;100.00;54342.03;5026528;28;20032;-68
2023/04/20 09:45:28;;;;;;;33.40;13.40;;;;;;;-144.73;100.00;54378.97;5045985;28;20044;-69
2023/04/20 09:47:53;;;;;;;49.67;14.60;;;;;;;-144.73;100.00;54391.28;5027667;28;20029;-69
2023/04/20 09:50:19;;;;;;;43.22;13.50;;;;;;;-144.73;100.00;54350.22;5027587;28;20041;-68
2023/04/20 09:52:47;;;;;;;27.92;11.60;;;;;;;-144.73;100.00;54362.53;5028405;28;20017;-69
2023/04/20 09:55:13;;;;;;;39.00;13.02;;;;;;;-144.73;100.00;54342.03;5044766;28;20033;-70
2023/04/20 09:57:39;;;;;;;32.65;13.13;;;;;;;-144.73;100.00;54354.34;5026992;28;20029;-69
2023/04/20 10:00:06;;;;;;;30.02;13.05;;;;;;;-144.73;100.00;54337.91;5044713;28;20024;-69
2023/04/20 10:02:32;;;;;;;35.25;14.52;;;;;;;-144.73;100.00;54317.38;5024726;28;20033;-70
2023/04/20 10:04:58;;;;;;;29.98;12.32;;;;;;;-144.73;100.00;54317.38;5026117;28;20490;-70
2023/04/20 10:07:29;;;;;;;26.70;10.95;;;;;;;-144.73;100.00;54325.59;5028079;28;20036;-70
2023/04/20 10:10:04;;;;;;;31.67;12.50;;;;;;;-144.73;100.00;54358.44;5024933;28;20107;-69
2023/04/20 10:12:29;;;;;;;29.95;11.23;;;;;;;-144.73;100.00;54383.06;5041663;28;20111;-69
2023/04/20 10:14:56;;;;;;;31.65;10.27;;;;;;;-144.73;100.00;54383.06;5029201;28;20245;-70
2023/04/20 10:17:30;;;;;;;22.75;11.10;;;;;;;-144.73;100.00;54374.84;5023563;28;20018;-69
2023/04/20 10:19:56;;;;;;;26.48;11.13;;;;;;;-144.73;100.00;54358.44;5025845;28;20029;-69
2023/04/20 10:22:31;;;;;;;35.13;11.10;;;;;;;-144.73;100.00;54354.34;5028452;28;20024;-68
2023/04/20 10:24:56;;;;;;;26.95;10.88;;;;;;;-144.73;100.00;54342.03;5045364;28;20025;-69
2023/04/20 10:27:22;;;;;;;23.50;10.82;;;;;;;-144.73;100.00;54395.38;5027603;28;20021;-69
2023/04/20 10:29:47;;;;;;;29.67;10.95;;;;;;;-144.73;100.00;54309.19;5028598;28;20033;-70
2023/04/20 10:32:31;;;;;;;31.20;11.27;;;;;;;-144.73;100.00;54374.84;5028446;28;20024;-69
2023/04/20 10:35:15;;;;;;;35.95;11.93;;;;;;;-144.73;100.00;54350.22;5026787;28;20028;-68
2023/04/20 10:37:48;;;;;;;31.38;12.38;;;;;;;-144.73;100.00;54366.66;5030008;28;20020;-69
2023/04/20 10:40:13;;;;;;;30.52;10.82;;;;;;;-144.73;100.00;54366.66;5046865;28;20033;-68
2023/04/20 10:42:45;;;;;;;24.98;11.00;;;;;;;-144.73;100.00;54370.75;5028431;28;20108;-68
2023/04/20 10:45:11;;;;;;;;;;;;;;;-144.73;100.00;54352.28;5047180;28;20033;-67
2023/04/20 10:47:39;;;;;;;29.85;11.38;;;;;;;-144.73;100.00;54374.84;5029532;28;19915;-67
2023/04/20 10:50:15;;;;;;;22.00;10.02;;;;;;;-144.73;100.00;54378.97;5028601;28;20021;-68
2023/04/20 10:52:42;;;;;;;31.45;11.05;;;;;;;-144.73;100.00;54354.34;5031562;28;20029;-70
2023/04/20 10:55:19;;;;;;;27.92;9.82;;;;;;;-144.73;100.00;54360.50;5031776;28;20048;-68
2023/04/20 10:57:44;;;;;;;21.55;9.25;;;;;;;-144.73;100.00;54333.81;5031251;28;20092;-68